createdAt,value
2019-04-14T00:00:44.736Z,74.30
2019-04-14T00:03:15.127Z,75.30
2019-04-14T00:05:45.056Z,74.70
2019-04-14T00:08:13.646Z,73.80
2019-04-14T00:10:42.235Z,73.60
2019-04-14T00:13:11.035Z,74.20
2019-04-14T00:15:45.088Z,74.60
2019-04-14T00:18:09.776Z,75.30
2019-04-14T00:20:38.274Z,74.60
2019-04-14T00:23:06.883Z,75.20
2019-04-14T00:25:35.318Z,76.80
2019-04-14T00:28:05.126Z,77.00
2019-04-14T00:30:33.847Z,77.10
2019-04-14T00:33:04.142Z,76.90
2019-04-14T00:35:47.049Z,76.00
2019-04-14T00:38:17.530Z,76.20
2019-04-14T00:40:56.427Z,75.60
2019-04-14T00:43:26.662Z,75.00
2019-04-14T00:46:01.016Z,73.90
2019-04-14T00:48:30.214Z,73.00
2019-04-14T00:50:58.655Z,74.00
2019-04-14T00:53:27.472Z,74.30
2019-04-14T00:55:55.996Z,74.30
2019-04-14T00:58:25.634Z,75.40
2019-04-14T01:00:54.343Z,74.80
2019-04-14T01:03:22.768Z,75.20
2019-04-14T01:05:52.498Z,75.80
2019-04-14T01:08:21.215Z,77.50
2019-04-14T01:10:49.837Z,77.80
2019-04-14T01:13:18.402Z,77.50
2019-04-14T01:15:56.822Z,77.50
2019-04-14T01:18:17.077Z,77.60
2019-04-14T01:20:45.503Z,77.90
2019-04-14T01:23:15.020Z,77.20
2019-04-14T01:25:43.595Z,77.30
2019-04-14T01:28:12.039Z,77.30
2019-04-14T01:30:41.475Z,77.20
2019-04-14T01:33:10.097Z,77.10
2019-04-14T01:35:38.511Z,76.90
2019-04-14T01:38:07.895Z,76.70
2019-04-14T01:40:36.563Z,77.00
2019-04-14T01:43:05.987Z,76.60
2019-04-14T01:45:34.536Z,77.00
2019-04-14T01:48:03.863Z,77.10
2019-04-14T01:50:36.906Z,76.60
2019-04-14T01:53:23.215Z,75.70
2019-04-14T01:56:02.068Z,76.80
2019-04-14T01:58:32.158Z,77.20
2019-04-14T02:01:11.007Z,77.70
2019-04-14T02:03:40.886Z,77.60
2019-04-14T02:06:09.430Z,77.20
2019-04-14T02:08:37.882Z,76.30
2019-04-14T02:11:07.342Z,76.40
2019-04-14T02:13:37.726Z,76.50
2019-04-14T02:16:18.836Z,77.10
2019-04-14T02:18:36.327Z,78.10
2019-04-14T02:21:04.818Z,78.20
2019-04-14T02:23:34.408Z,78.20
2019-04-14T02:26:03.001Z,78.30
2019-04-14T02:28:31.439Z,77.50
2019-04-14T02:31:13.434Z,77.70
2019-04-14T02:33:50.627Z,76.80
2019-04-14T02:38:54.860Z,76.60
2019-04-14T02:41:46.772Z,76.10
2019-04-14T02:44:12.162Z,75.40
2019-04-14T02:46:31.936Z,75.00
2019-04-14T02:48:59.143Z,75.50
2019-04-14T02:51:26.772Z,75.50
2019-04-14T02:54:03.414Z,75.50
2019-04-14T02:59:00.025Z,76.50
2019-04-14T03:04:15.275Z,76.80
2019-04-14T03:06:25.658Z,77.40
2019-04-14T03:09:15.407Z,77.50
2019-04-14T03:14:01.391Z,77.50
2019-04-14T03:16:43.896Z,77.40
2019-04-14T03:19:16.542Z,78.60
2019-04-14T03:21:52.772Z,78.80
2019-04-14T03:24:30.747Z,78.60
2019-04-14T03:29:43.271Z,78.20
2019-04-14T03:32:49.570Z,78.00
2019-04-14T03:34:52.441Z,76.20
2019-04-14T03:37:37.747Z,75.80
2019-04-14T03:42:21.303Z,75.80
2019-04-14T03:44:49.444Z,76.60
2019-04-14T03:47:22.065Z,77.30
2019-04-14T03:54:40.415Z,78.10
2019-04-14T03:56:55.484Z,77.80
2019-04-14T03:59:24.268Z,78.10
2019-04-14T04:01:52.723Z,78.60
2019-04-14T04:04:21.156Z,78.80
2019-04-14T04:06:50.867Z,78.30
2019-04-14T04:09:21.442Z,77.90
2019-04-14T04:11:49.953Z,78.00
2019-04-14T04:14:18.359Z,77.60
2019-04-14T04:17:07.858Z,77.80
2019-04-14T04:19:38.340Z,78.00
2019-04-14T04:22:15.058Z,77.60
2019-04-14T04:24:45.510Z,76.90
2019-04-14T04:27:28.753Z,76.30
2019-04-14T04:29:59.194Z,76.20
2019-04-14T04:32:45.398Z,76.60
2019-04-14T04:35:34.711Z,78.10
2019-04-14T04:38:07.960Z,77.90
2019-04-14T04:40:37.485Z,78.80
2019-04-14T04:43:06.118Z,79.30
2019-04-14T04:45:34.542Z,80.00
2019-04-14T04:48:02.987Z,80.60
2019-04-14T04:50:32.391Z,81.20
2019-04-14T04:53:00.984Z,81.80
2019-04-14T04:55:30.406Z,81.50
2019-04-14T04:57:59.186Z,81.80
2019-04-14T05:00:28.760Z,81.70
2019-04-14T05:02:57.321Z,81.80
2019-04-14T05:06:02.671Z,81.70
2019-04-14T05:08:31.273Z,81.80
2019-04-14T05:11:01.353Z,81.70
2019-04-14T05:13:31.464Z,81.10
2019-04-14T05:15:59.932Z,80.60
2019-04-14T05:18:28.997Z,80.30
2019-04-14T05:20:57.534Z,80.40
2019-04-14T05:23:25.959Z,79.20
2019-04-14T05:25:54.398Z,78.00
2019-04-14T05:28:22.820Z,77.10
2019-04-14T05:30:52.429Z,75.50
2019-04-14T05:33:21.092Z,74.80
2019-04-14T05:35:51.337Z,74.10
2019-04-14T05:38:19.778Z,74.20
2019-04-14T05:40:48.221Z,74.50
2019-04-14T05:43:28.269Z,74.40
2019-04-14T05:45:47.916Z,74.90
2019-04-14T05:48:16.509Z,75.30
2019-04-14T05:50:45.019Z,76.30
2019-04-14T05:53:13.500Z,74.60
2019-04-14T05:55:41.962Z,73.20
2019-04-14T05:58:10.392Z,70.90
2019-04-14T06:00:39.844Z,71.50
2019-04-14T06:03:08.264Z,70.50
2019-04-14T06:05:36.763Z,70.10
2019-04-14T06:08:05.410Z,70.50
2019-04-14T06:10:34.717Z,67.30
2019-04-14T06:13:03.157Z,66.30
2019-04-14T06:15:31.604Z,65.40
2019-04-14T06:18:00.023Z,65.40
2019-04-14T06:20:28.466Z,66.30
2019-04-14T06:22:56.912Z,65.10
2019-04-14T06:25:25.380Z,63.40
2019-04-14T06:27:53.819Z,63.80
2019-04-14T06:30:32.935Z,62.70
2019-04-14T06:33:03.027Z,62.90
2019-04-14T06:35:33.103Z,61.50
2019-04-14T06:38:06.145Z,62.80
2019-04-14T06:40:51.003Z,62.20
2019-04-14T06:43:19.451Z,61.50
2019-04-14T06:45:47.897Z,61.90
2019-04-14T06:48:16.339Z,61.30
2019-04-14T06:50:46.397Z,61.10
2019-04-14T06:53:15.367Z,61.20
2019-04-14T06:55:43.815Z,60.80
2019-04-14T06:58:12.273Z,60.60
2019-04-14T07:00:40.712Z,60.00
2019-04-14T07:03:09.160Z,60.80
2019-04-14T07:05:37.579Z,60.10
2019-04-14T07:08:06.026Z,60.30
2019-04-14T07:10:34.466Z,60.10
2019-04-14T07:13:02.920Z,59.10
2019-04-14T07:15:31.344Z,58.30
2019-04-14T07:17:59.791Z,58.40
2019-04-14T07:20:28.223Z,60.10
2019-04-14T07:22:56.666Z,59.30
2019-04-14T07:25:25.094Z,60.20
2019-04-14T07:27:53.559Z,59.20
2019-04-14T07:30:26.794Z,57.60
2019-04-14T07:33:02.635Z,59.80
2019-04-14T07:35:35.384Z,58.80
2019-04-14T07:38:05.516Z,57.70
2019-04-14T07:40:50.626Z,59.80
2019-04-14T07:43:35.963Z,59.40
2019-04-14T07:46:06.111Z,57.80
2019-04-14T07:48:36.191Z,60.00
2019-04-14T07:51:18.358Z,59.50
2019-04-14T07:53:57.393Z,60.20
2019-04-14T07:56:27.478Z,60.00
2019-04-14T07:58:57.558Z,58.50
2019-04-14T08:01:30.412Z,59.00
2019-04-14T08:04:06.309Z,57.20
2019-04-14T08:06:34.734Z,57.90
2019-04-14T08:09:05.226Z,60.00
2019-04-14T08:11:33.645Z,24.40
2019-04-14T08:14:02.096Z,23.80
2019-04-14T08:16:30.535Z,24.10
2019-04-14T08:18:58.959Z,23.70
2019-04-14T08:21:27.482Z,22.80
2019-04-14T08:23:55.912Z,24.00
2019-04-14T08:26:24.486Z,22.10
2019-04-14T08:28:52.934Z,23.50
2019-04-14T08:31:22.942Z,23.60
2019-04-14T08:33:51.387Z,23.30
2019-04-14T08:36:19.945Z,22.20
2019-04-14T08:38:48.375Z,24.20
2019-04-14T08:41:16.898Z,22.60
2019-04-14T08:43:52.933Z,23.70
2019-04-14T08:46:28.959Z,21.90
2019-04-14T08:49:08.063Z,22.80
2019-04-14T08:51:38.171Z,22.40
2019-04-14T08:54:11.261Z,22.20
2019-04-14T08:56:53.108Z,21.90
2019-04-14T08:59:39.464Z,21.10
2019-04-14T09:02:12.408Z,21.80
2019-04-14T09:04:45.471Z,22.20
2019-04-14T09:07:32.003Z,21.30
2019-04-14T09:10:02.073Z,20.20
2019-04-14T09:12:32.175Z,19.40
2019-04-14T09:15:00.631Z,19.00
2019-04-14T09:17:30.607Z,20.30
2019-04-14T09:19:59.119Z,19.10
2019-04-14T09:22:27.579Z,18.70
2019-04-14T09:24:56.020Z,19.10
2019-04-14T09:27:24.459Z,19.20
2019-04-14T09:29:52.903Z,18.40
2019-04-14T09:32:21.784Z,20.40
2019-04-14T09:34:50.230Z,18.60
2019-04-14T09:37:18.687Z,18.60
2019-04-14T09:39:47.127Z,18.20
2019-04-14T09:42:15.647Z,19.00
2019-04-14T09:44:44.080Z,17.40
2019-04-14T09:47:12.559Z,18.20
2019-04-14T09:49:41.047Z,18.10
2019-04-14T09:52:09.615Z,19.20
2019-04-14T09:54:38.043Z,18.90
2019-04-14T09:57:06.668Z,19.50
2019-04-14T09:59:35.116Z,19.20
2019-04-14T10:02:03.882Z,18.10
2019-04-14T10:04:32.466Z,17.50
2019-04-14T10:07:00.910Z,17.00
2019-04-14T10:09:29.422Z,18.70
2019-04-14T10:11:57.855Z,18.20
2019-04-14T10:14:26.378Z,18.60
2019-04-14T10:16:54.819Z,19.40
2019-04-14T10:19:23.259Z,18.80
2019-04-14T10:21:51.700Z,19.30
2019-04-14T10:24:20.220Z,17.10
2019-04-14T10:26:48.758Z,16.90
2019-04-14T10:29:17.223Z,17.10
2019-04-14T10:31:45.659Z,17.60
2019-04-14T10:34:14.133Z,17.50
2019-04-14T10:36:42.577Z,17.90
2019-04-14T10:39:11.059Z,16.90
2019-04-14T10:41:39.483Z,16.10
2019-04-14T10:44:08.019Z,16.50
2019-04-14T10:46:36.450Z,17.20
2019-04-14T10:49:06.428Z,16.60
2019-04-14T10:51:34.855Z,16.40
2019-04-14T10:54:03.404Z,15.50
2019-04-14T10:56:31.851Z,17.00
2019-04-14T10:59:00.262Z,17.90
2019-04-14T11:01:28.724Z,17.70
2019-04-14T11:03:57.175Z,16.40
2019-04-14T11:06:27.455Z,16.70
2019-04-14T11:08:55.889Z,16.80
2019-04-14T11:11:24.414Z,16.00
2019-04-14T11:13:52.915Z,16.00
2019-04-14T11:16:21.363Z,15.20
2019-04-14T11:18:49.794Z,15.30
2019-04-14T11:21:18.272Z,15.20
2019-04-14T11:23:46.723Z,15.50
2019-04-14T11:26:15.204Z,16.00
2019-04-14T11:28:43.643Z,16.00
2019-04-14T11:31:13.454Z,16.00
2019-04-14T11:34:00.505Z,15.80
2019-04-14T11:36:49.049Z,16.40
2019-04-14T11:39:19.187Z,16.90
2019-04-14T11:41:47.671Z,16.90
2019-04-14T11:44:16.132Z,17.30
2019-04-14T11:46:44.662Z,16.40
2019-04-14T11:49:13.108Z,16.10
2019-04-14T11:51:54.233Z,15.80
2019-04-14T11:54:11.883Z,14.70
2019-04-14T11:56:40.612Z,15.00
2019-04-14T11:59:09.047Z,16.20
2019-04-14T12:01:48.363Z,14.40
2019-04-14T12:04:27.531Z,14.90
2019-04-14T12:07:12.693Z,15.10
2019-04-14T12:09:42.762Z,14.80
2019-04-14T12:12:11.222Z,15.70
2019-04-14T12:14:39.635Z,15.10
2019-04-14T12:17:08.109Z,15.20
2019-04-14T12:19:36.563Z,14.00
2019-04-14T12:22:08.410Z,14.60
2019-04-14T12:24:35.372Z,14.50
2019-04-14T12:27:04.027Z,14.20
2019-04-14T12:29:32.581Z,14.40
2019-04-14T12:32:01.761Z,14.70
2019-04-14T12:34:30.421Z,15.10
2019-04-14T12:36:58.887Z,14.80
2019-04-14T12:39:27.336Z,14.70
2019-04-14T12:41:58.313Z,15.70
2019-04-14T12:44:31.346Z,16.10
2019-04-14T12:47:07.635Z,15.00
2019-04-14T12:49:52.886Z,14.70
2019-04-14T12:52:23.048Z,14.70
2019-04-14T12:54:51.480Z,14.90
2019-04-14T12:57:39.640Z,14.90
2019-04-14T13:00:09.856Z,15.10
2019-04-14T13:02:39.958Z,14.70
2019-04-14T13:05:08.730Z,14.50
2019-04-14T13:07:37.210Z,14.90
2019-04-14T13:10:07.652Z,14.50
2019-04-14T13:12:36.114Z,14.50
2019-04-14T13:15:06.287Z,14.80
2019-04-14T13:17:34.743Z,14.50
2019-04-14T13:20:05.363Z,15.90
2019-04-14T13:22:34.506Z,16.00
2019-04-14T13:25:03.373Z,15.20
2019-04-14T13:27:31.803Z,15.70
2019-04-14T13:30:00.280Z,14.50
2019-04-14T13:32:35.902Z,15.70
2019-04-14T13:34:58.957Z,16.00
2019-04-14T13:37:27.403Z,15.90
2019-04-14T13:39:55.877Z,14.90
2019-04-14T13:42:24.303Z,16.10
2019-04-14T13:44:54.399Z,15.70
2019-04-14T13:47:22.847Z,15.30
2019-04-14T13:49:51.316Z,14.60
2019-04-14T13:52:19.740Z,14.40
2019-04-14T13:54:48.227Z,14.30
2019-04-14T13:57:16.700Z,14.40
2019-04-14T13:59:45.160Z,13.90
2019-04-14T14:02:13.607Z,14.20
2019-04-14T14:04:42.069Z,14.40
2019-04-14T14:07:10.614Z,14.20
2019-04-14T14:09:39.145Z,14.50
2019-04-14T14:12:09.275Z,14.00
2019-04-14T14:14:55.365Z,13.60
2019-04-14T14:17:28.234Z,14.90
2019-04-14T14:20:01.121Z,14.10
2019-04-14T14:22:33.903Z,14.20
2019-04-14T14:25:09.986Z,16.20
2019-04-14T14:27:38.536Z,15.60
2019-04-14T14:30:09.064Z,13.40
2019-04-14T14:32:37.531Z,13.90
2019-04-14T14:35:06.586Z,13.80
2019-04-14T14:37:35.696Z,13.10
2019-04-14T14:40:05.871Z,13.70
2019-04-14T14:42:34.320Z,13.50
2019-04-14T14:45:20.887Z,13.50
2019-04-14T14:47:51.019Z,12.90
2019-04-14T14:50:33.158Z,13.10
2019-04-14T14:53:11.402Z,13.00
2019-04-14T14:55:31.779Z,14.80
2019-04-14T14:58:00.247Z,14.50
2019-04-14T15:00:30.318Z,14.60
2019-04-14T15:02:58.771Z,14.20
2019-04-14T15:05:27.280Z,14.40
2019-04-14T15:07:55.799Z,14.90
2019-04-14T15:10:24.252Z,14.40
2019-04-14T15:12:52.783Z,14.00
2019-04-14T15:15:21.263Z,14.30
2019-04-14T15:17:49.858Z,13.80
2019-04-14T15:20:18.367Z,13.70
2019-04-14T15:22:47.032Z,13.20
2019-04-14T15:25:15.531Z,13.50
2019-04-14T15:27:44.002Z,13.60
2019-04-14T15:30:17.161Z,14.30
2019-04-14T15:32:45.614Z,14.40
2019-04-14T15:35:14.449Z,13.80
2019-04-14T15:37:42.935Z,14.40
2019-04-14T15:40:11.792Z,14.60
2019-04-14T15:42:40.412Z,14.30
2019-04-14T15:45:09.555Z,14.20
2019-04-14T15:47:38.147Z,15.20
2019-04-14T15:50:07.230Z,15.20
2019-04-14T15:52:35.683Z,15.30
2019-04-14T15:55:05.552Z,15.90
2019-04-14T15:57:35.710Z,15.90
2019-04-14T16:00:14.310Z,16.00
2019-04-14T16:03:00.705Z,16.40
2019-04-14T16:05:47.098Z,15.90
2019-04-14T16:08:17.203Z,16.20
2019-04-14T16:10:47.349Z,16.00
2019-04-14T16:13:17.479Z,16.20
2019-04-14T16:16:04.071Z,15.60
2019-04-14T16:18:50.524Z,15.20
2019-04-14T16:21:19.005Z,16.00
2019-04-14T16:23:50.758Z,16.70
2019-04-14T16:26:31.261Z,16.30
2019-04-14T16:29:02.737Z,16.10
2019-04-14T16:31:49.371Z,16.40
2019-04-14T16:34:22.454Z,16.40
2019-04-14T16:36:52.223Z,16.70
2019-04-14T16:39:20.987Z,16.40
2019-04-14T16:41:49.426Z,17.20
2019-04-14T16:44:17.882Z,16.80
2019-04-14T16:46:46.319Z,16.40
2019-04-14T16:49:14.768Z,16.70
2019-04-14T16:51:53.878Z,16.50
2019-04-14T16:54:24.006Z,16.20
2019-04-14T16:56:54.099Z,16.50
2019-04-14T16:59:22.554Z,16.30
2019-04-14T17:01:50.988Z,16.30
2019-04-14T17:04:19.424Z,16.20
2019-04-14T17:06:47.875Z,16.20
2019-04-14T17:09:16.335Z,16.40
2019-04-14T17:11:46.394Z,16.80
2019-04-14T17:14:16.467Z,16.70
2019-04-14T17:17:02.879Z,16.80
2019-04-14T17:19:35.923Z,17.00
2019-04-14T17:22:07.690Z,16.90
2019-04-14T17:24:43.708Z,17.10
2019-04-14T17:27:23.040Z,17.30
2019-04-14T17:29:59.043Z,17.40
2019-04-14T17:32:47.190Z,17.30
2019-04-14T17:35:23.178Z,17.50
2019-04-14T17:37:53.237Z,17.40
2019-04-14T17:40:25.791Z,17.80
2019-04-14T17:43:01.642Z,17.80
2019-04-14T17:45:50.711Z,17.50
2019-04-14T17:48:29.712Z,17.90
2019-04-14T17:51:03.483Z,17.80
2019-04-14T17:53:33.815Z,17.80
2019-04-14T17:56:03.924Z,52.00
2019-04-14T17:58:51.810Z,52.50
2019-04-14T18:01:21.916Z,52.50
2019-04-14T18:04:08.448Z,52.30
2019-04-14T18:06:44.558Z,52.60
2019-04-14T18:09:28.837Z,52.50
2019-04-14T18:12:01.595Z,52.90
2019-04-14T18:14:31.658Z,53.30
2019-04-14T18:17:13.900Z,53.00
2019-04-14T18:19:59.106Z,52.80
2019-04-14T18:22:27.567Z,53.30
2019-04-14T18:24:56.007Z,53.40
2019-04-14T18:27:24.456Z,53.10
2019-04-14T18:29:57.060Z,53.20
2019-04-14T18:32:27.172Z,52.80
2019-04-14T18:34:57.366Z,53.40
2019-04-14T18:37:43.916Z,53.10
2019-04-14T18:40:26.412Z,53.60
2019-04-14T18:43:05.285Z,53.40
2019-04-14T18:45:35.386Z,53.60
2019-04-14T18:48:11.227Z,53.70
2019-04-14T18:50:43.736Z,54.10
2019-04-14T18:53:25.714Z,54.20
2019-04-14T18:56:01.651Z,54.10
2019-04-14T18:58:49.944Z,54.20
2019-04-14T19:01:20.037Z,54.20
2019-04-14T19:03:48.953Z,54.40
2019-04-14T19:06:18.050Z,54.00
2019-04-14T19:08:46.567Z,54.30
2019-04-14T19:11:17.153Z,54.50
2019-04-14T19:13:59.351Z,54.50
2019-04-14T19:16:39.631Z,54.60
2019-04-14T19:19:06.843Z,54.80
2019-04-14T19:21:35.338Z,54.80
2019-04-14T19:24:03.990Z,55.10
2019-04-14T19:26:32.555Z,55.20
2019-04-14T19:29:01.062Z,54.90
2019-04-14T19:31:29.628Z,55.20
2019-04-14T19:33:58.054Z,55.00
2019-04-14T19:36:26.511Z,55.20
2019-04-14T19:38:54.944Z,55.00
2019-04-14T19:41:23.416Z,55.30
2019-04-14T19:43:51.894Z,54.90
2019-04-14T19:46:20.454Z,55.40
2019-04-14T19:48:48.964Z,55.10
2019-04-14T19:51:17.549Z,55.10
2019-04-14T19:53:46.087Z,55.80
2019-04-14T19:56:14.532Z,55.60
2019-04-14T19:58:43.001Z,55.50
2019-04-14T20:01:11.440Z,55.60
2019-04-14T20:03:39.867Z,55.30
2019-04-14T20:06:08.342Z,56.20
2019-04-14T20:08:36.775Z,56.10
2019-04-14T20:11:05.290Z,56.20
2019-04-14T20:13:35.454Z,55.90
2019-04-14T20:16:22.297Z,56.00
2019-04-14T20:18:55.186Z,56.80
2019-04-14T20:21:41.418Z,56.70
2019-04-14T20:24:11.480Z,56.70
2019-04-14T20:26:41.596Z,56.80
2019-04-14T20:29:17.477Z,56.80
2019-04-14T20:31:50.309Z,57.10
2019-04-14T20:34:18.732Z,57.20
2019-04-14T20:36:47.240Z,57.10
2019-04-14T20:39:16.555Z,57.60
2019-04-14T20:41:47.183Z,57.40
2019-04-14T20:44:15.798Z,57.20
2019-04-14T20:46:44.298Z,57.70
2019-04-14T20:49:12.895Z,57.60
2019-04-14T20:51:41.311Z,58.00
2019-04-14T20:54:09.831Z,57.60
2019-04-14T20:56:38.241Z,57.90
2019-04-14T20:59:06.793Z,58.00
2019-04-14T21:01:36.853Z,58.00
2019-04-14T21:04:18.952Z,58.40
2019-04-14T21:07:05.079Z,58.20
2019-04-14T21:09:47.259Z,58.60
2019-04-14T21:12:23.083Z,58.50
2019-04-14T21:14:53.208Z,59.10
2019-04-14T21:17:25.990Z,59.50
2019-04-14T21:19:58.786Z,59.50
2019-04-14T21:22:28.919Z,59.50
2019-04-14T21:24:59.018Z,59.30
2019-04-14T21:27:45.543Z,60.00
2019-04-14T21:30:15.870Z,60.00
2019-04-14T21:32:49.038Z,59.90
2019-04-14T21:35:35.154Z,60.20
2019-04-14T21:38:07.959Z,60.20
2019-04-14T21:40:46.960Z,60.20
2019-04-14T21:43:15.696Z,60.10
2019-04-14T21:45:44.147Z,60.30
2019-04-14T21:48:12.734Z,60.00
2019-04-14T21:50:41.165Z,60.20
2019-04-14T21:53:09.867Z,60.20
2019-04-14T21:55:38.331Z,60.30
2019-04-14T21:58:20.479Z,60.30
2019-04-14T22:00:53.657Z,60.30
2019-04-14T22:03:31.290Z,60.50
2019-04-14T22:06:01.466Z,60.30
2019-04-14T22:08:31.515Z,60.50
2019-04-14T22:11:01.697Z,60.50
2019-04-14T22:13:31.642Z,60.50
2019-04-14T22:16:00.318Z,60.50
2019-04-14T22:18:28.738Z,60.50
2019-04-14T22:20:57.255Z,60.60
2019-04-14T22:23:25.673Z,60.60
2019-04-14T22:25:54.125Z,60.70
2019-04-14T22:28:22.554Z,60.90
2019-04-14T22:30:51.216Z,61.30
2019-04-14T22:33:19.715Z,61.20
2019-04-14T22:35:48.148Z,61.20
2019-04-14T22:38:16.631Z,61.30
2019-04-14T22:40:45.079Z,61.20
2019-04-14T22:43:13.499Z,61.50
2019-04-14T22:45:41.926Z,61.30
2019-04-14T22:48:10.388Z,61.20
2019-04-14T22:50:38.823Z,61.20
2019-04-14T22:53:07.267Z,61.30
2019-04-14T22:55:35.695Z,61.70
2019-04-14T22:58:04.209Z,61.90
2019-04-14T23:00:37.379Z,61.70
2019-04-14T23:03:07.469Z,62.70
2019-04-14T23:05:39.983Z,62.40
2019-04-14T23:08:28.387Z,62.30
2019-04-14T23:11:01.086Z,62.10
2019-04-14T23:13:33.914Z,62.40
2019-04-14T23:16:22.519Z,62.10
2019-04-14T23:18:52.686Z,62.20
2019-04-14T23:21:22.742Z,61.90
2019-04-14T23:24:01.982Z,61.80
2019-04-14T23:26:30.438Z,62.00
2019-04-14T23:28:58.879Z,61.80
2019-04-14T23:31:27.300Z,62.00
2019-04-14T23:33:55.741Z,62.40
2019-04-14T23:36:24.159Z,62.10
2019-04-14T23:38:52.593Z,62.00
2019-04-14T23:41:21.092Z,62.20
2019-04-14T23:43:49.526Z,62.30
2019-04-14T23:46:17.951Z,62.30
2019-04-14T23:48:47.926Z,62.70
2019-04-14T23:51:16.417Z,62.40
2019-04-14T23:53:44.861Z,62.50
2019-04-14T23:56:13.302Z,62.50
2019-04-14T23:58:41.761Z,62.50
